createdAt,value
2023-03-06T00:00:47.599Z,4.90
2023-03-06T00:05:49.803Z,4.90
2023-03-06T00:10:52.107Z,4.90
2023-03-06T00:15:54.328Z,4.90
2023-03-06T00:20:56.541Z,4.80
2023-03-06T00:25:58.764Z,4.80
2023-03-06T00:31:01.834Z,4.70
2023-03-06T00:36:05.749Z,4.50
2023-03-06T00:41:13.279Z,4.40
2023-03-06T00:46:15.349Z,4.30
2023-03-06T00:51:19.717Z,4.30
2023-03-06T00:56:21.879Z,4.30
2023-03-06T01:01:23.974Z,4.40
2023-03-06T01:06:26.361Z,4.40
2023-03-06T01:11:28.586Z,4.40
2023-03-06T01:16:30.901Z,4.40
2023-03-06T01:21:33.054Z,4.40
2023-03-06T01:26:35.150Z,4.50
2023-03-06T01:31:37.664Z,4.50
2023-03-06T01:36:39.958Z,4.50
2023-03-06T01:41:42.082Z,4.50
2023-03-06T01:46:45.271Z,4.50
2023-03-06T01:52:00.745Z,4.50
2023-03-06T01:57:09.447Z,4.50
2023-03-06T02:02:13.534Z,4.40
2023-03-06T02:07:19.295Z,4.40
2023-03-06T02:12:22.309Z,4.40
2023-03-06T02:17:25.277Z,4.40
2023-03-06T02:22:37.584Z,4.40
2023-03-06T02:27:40.593Z,4.40
2023-03-06T02:32:42.760Z,4.40
2023-03-06T02:37:45.442Z,4.50
2023-03-06T02:42:50.786Z,4.50
2023-03-06T02:47:53.031Z,4.40
2023-03-06T02:52:55.220Z,4.40
2023-03-06T02:57:57.978Z,4.40
2023-03-06T03:03:01.437Z,4.40
2023-03-06T03:08:03.714Z,4.40
2023-03-06T03:13:06.066Z,4.40
2023-03-06T03:18:11.534Z,4.40
2023-03-06T03:23:13.685Z,4.40
2023-03-06T03:28:16.172Z,4.30
2023-03-06T03:33:18.641Z,4.30
2023-03-06T03:38:21.005Z,4.20
2023-03-06T03:43:23.323Z,4.20
2023-03-06T03:48:26.454Z,4.10
2023-03-06T03:53:28.640Z,4.10
2023-03-06T03:58:31.327Z,4.10
2023-03-06T04:03:33.941Z,4.10
2023-03-06T04:08:36.828Z,4.20
2023-03-06T04:13:39.039Z,4.20
2023-03-06T04:18:41.382Z,4.20
2023-03-06T04:23:44.590Z,4.10
2023-03-06T04:28:47.179Z,4.10
2023-03-06T04:33:50.047Z,4.10
2023-03-06T04:38:52.294Z,4.10
2023-03-06T04:43:54.961Z,4.10
2023-03-06T04:48:58.265Z,4.10
2023-03-06T04:54:00.375Z,4.10
2023-03-06T04:59:04.295Z,4.20
2023-03-06T05:04:06.437Z,4.20
2023-03-06T05:09:08.627Z,4.20
2023-03-06T05:14:10.703Z,4.20
2023-03-06T05:19:12.872Z,4.20
2023-03-06T05:24:15.191Z,4.10
2023-03-06T05:29:17.420Z,4.10
2023-03-06T05:34:19.563Z,4.10
2023-03-06T05:39:21.677Z,4.10
2023-03-06T05:44:24.040Z,4.10
2023-03-06T05:49:26.270Z,4.10
2023-03-06T05:54:28.345Z,4.10
2023-03-06T05:59:32.876Z,4.10
2023-03-06T06:04:35.063Z,4.10
2023-03-06T06:09:37.134Z,4.20
2023-03-06T06:14:39.231Z,4.20
2023-03-06T06:19:41.285Z,4.20
2023-03-06T06:24:43.334Z,4.20
2023-03-06T06:29:45.417Z,4.20
2023-03-06T06:34:47.558Z,4.20
2023-03-06T06:39:49.674Z,4.20
2023-03-06T06:44:52.338Z,4.20
2023-03-06T06:49:55.678Z,4.20
2023-03-06T06:54:57.824Z,4.20
2023-03-06T06:59:59.934Z,4.20
2023-03-06T07:05:05.256Z,4.30
2023-03-06T07:10:12.270Z,4.30
2023-03-06T07:15:15.974Z,4.30
2023-03-06T07:20:19.135Z,4.40
2023-03-06T07:25:21.623Z,4.40
2023-03-06T07:30:24.192Z,4.40
2023-03-06T07:35:26.988Z,4.50
2023-03-06T07:40:29.273Z,4.40
2023-03-06T07:45:31.725Z,4.40
2023-03-06T07:50:35.055Z,4.40
2023-03-06T07:55:41.395Z,4.40
2023-03-06T08:00:43.522Z,4.50
2023-03-06T08:05:45.657Z,4.60
2023-03-06T08:10:49.171Z,4.70
2023-03-06T08:15:51.245Z,4.80
2023-03-06T08:21:13.467Z,4.80
2023-03-06T08:26:18.765Z,4.90
2023-03-06T08:31:23.704Z,4.90
2023-03-06T08:36:25.974Z,4.90
2023-03-06T08:41:28.451Z,4.90
2023-03-06T08:46:31.278Z,4.90
2023-03-06T08:51:33.477Z,5.00
2023-03-06T08:56:35.598Z,5.10
2023-03-06T09:01:38.500Z,5.20
2023-03-06T09:06:42.922Z,5.20
2023-03-06T09:11:45.022Z,5.30
2023-03-06T09:16:47.139Z,5.60
2023-03-06T09:21:49.276Z,5.80
2023-03-06T09:26:51.810Z,6.10
2023-03-06T09:31:53.947Z,6.20
2023-03-06T09:36:57.671Z,6.40
2023-03-06T09:42:00.028Z,6.50
2023-03-06T09:47:33.083Z,6.60
2023-03-06T09:52:47.311Z,6.60
2023-03-06T09:57:52.548Z,6.50
2023-03-06T10:03:20.860Z,6.50
2023-03-06T10:08:36.605Z,6.50
2023-03-06T10:13:43.235Z,6.50
2023-03-06T10:18:45.666Z,6.50
2023-03-06T10:23:55.049Z,6.50
2023-03-06T10:29:02.608Z,6.60
2023-03-06T10:34:24.448Z,6.70
2023-03-06T10:39:28.410Z,6.70
2023-03-06T10:44:30.764Z,6.60
2023-03-06T10:49:36.487Z,6.70
2023-03-06T10:54:44.325Z,6.90
2023-03-06T11:00:02.415Z,7.20
2023-03-06T11:05:07.087Z,7.30
2023-03-06T11:10:19.871Z,7.40
2023-03-06T11:15:23.350Z,7.40
2023-03-06T11:20:53.441Z,7.30
2023-03-06T11:26:02.929Z,7.20
2023-03-06T11:31:15.288Z,7.10
2023-03-06T11:36:41.424Z,7.20
2023-03-06T11:42:17.126Z,7.20
2023-03-06T11:47:37.592Z,7.30
2023-03-06T11:52:48.693Z,7.30
2023-03-06T11:58:19.902Z,7.40
2023-03-06T12:04:00.310Z,7.40
2023-03-06T12:09:17.309Z,7.40
2023-03-06T12:14:43.646Z,7.40
2023-03-06T12:20:07.154Z,7.50
2023-03-06T12:25:28.003Z,7.50
2023-03-06T12:30:32.794Z,7.50
2023-03-06T12:36:01.930Z,7.50
2023-03-06T12:41:37.471Z,7.60
2023-03-06T12:46:46.737Z,7.70
2023-03-06T12:51:49.014Z,7.90
2023-03-06T12:56:52.585Z,8.00
2023-03-06T13:02:05.610Z,8.10
2023-03-06T13:07:27.866Z,7.90
2023-03-06T13:13:08.591Z,7.80
2023-03-06T13:18:22.673Z,7.60
2023-03-06T13:23:33.700Z,7.30
2023-03-06T13:28:41.429Z,6.80
2023-03-06T13:33:43.551Z,6.10
2023-03-06T13:38:48.422Z,5.80
2023-03-06T13:43:55.962Z,5.90
2023-03-06T13:49:13.095Z,6.10
2023-03-06T13:54:34.969Z,6.20
2023-03-06T14:00:08.143Z,6.20
2023-03-06T14:05:14.461Z,6.40
2023-03-06T14:10:23.206Z,6.60
2023-03-06T14:15:46.565Z,7.10
2023-03-06T14:20:53.750Z,7.60
2023-03-06T14:26:04.606Z,7.90
2023-03-06T14:31:07.495Z,8.00
2023-03-06T14:36:15.981Z,8.10
2023-03-06T14:41:27.593Z,8.10
2023-03-06T14:46:29.712Z,8.20
2023-03-06T14:51:36.706Z,8.30
2023-03-06T14:56:45.997Z,8.50
2023-03-06T15:01:50.880Z,8.50
2023-03-06T15:06:54.743Z,8.50
2023-03-06T15:12:04.150Z,8.50
2023-03-06T15:17:18.196Z,8.60
2023-03-06T15:22:39.295Z,8.70
2023-03-06T15:27:47.245Z,8.70
2023-03-06T15:32:49.369Z,8.50
2023-03-06T15:37:51.854Z,8.50
2023-03-06T15:42:53.933Z,8.30
2023-03-06T15:47:56.088Z,8.10
2023-03-06T15:52:58.155Z,8.00
2023-03-06T15:58:04.733Z,7.70
2023-03-06T16:03:06.913Z,7.10
2023-03-06T16:08:14.896Z,6.70
2023-03-06T16:13:25.967Z,6.50
2023-03-06T16:18:28.071Z,6.40
2023-03-06T16:23:30.187Z,6.30
2023-03-06T16:28:32.695Z,6.30
2023-03-06T16:33:38.606Z,6.40
2023-03-06T16:38:44.367Z,6.40
2023-03-06T16:43:54.004Z,6.40
2023-03-06T16:48:56.196Z,6.50
2023-03-06T16:53:58.397Z,6.50
2023-03-06T16:59:00.479Z,6.60
2023-03-06T17:04:02.746Z,6.70
2023-03-06T17:09:05.061Z,6.70
2023-03-06T17:14:07.313Z,6.70
2023-03-06T17:19:14.386Z,6.60
2023-03-06T17:24:16.568Z,6.60
2023-03-06T17:29:18.677Z,6.50
2023-03-06T17:34:22.074Z,6.50
2023-03-06T17:39:25.962Z,6.50
2023-03-06T17:44:28.036Z,6.50
2023-03-06T17:49:30.731Z,6.50
2023-03-06T17:54:33.388Z,6.50
2023-03-06T17:59:35.510Z,6.50
2023-03-06T18:04:37.747Z,6.50
2023-03-06T18:09:42.352Z,6.40
2023-03-06T18:14:44.590Z,6.40
2023-03-06T18:19:46.737Z,6.40
2023-03-06T18:24:48.991Z,6.40
2023-03-06T18:29:52.285Z,6.30
2023-03-06T18:34:55.687Z,6.30
2023-03-06T18:39:57.798Z,6.30
2023-03-06T18:44:59.934Z,6.30
2023-03-06T18:50:05.203Z,6.30
2023-03-06T18:55:07.505Z,6.30
2023-03-06T19:00:10.182Z,6.30
2023-03-06T19:05:12.508Z,6.30
2023-03-06T19:10:14.670Z,6.30
2023-03-06T19:15:17.072Z,6.30
2023-03-06T19:20:19.200Z,6.20
2023-03-06T19:25:21.331Z,6.30
2023-03-06T19:30:25.704Z,6.20
2023-03-06T19:35:27.945Z,6.20
2023-03-06T19:40:30.055Z,6.20
2023-03-06T19:45:32.305Z,6.10
2023-03-06T19:50:34.701Z,6.10
2023-03-06T19:55:37.575Z,6.10
2023-03-06T20:00:41.452Z,6.10
2023-03-06T20:05:47.531Z,6.00
2023-03-06T20:10:49.776Z,6.00
2023-03-06T20:15:51.954Z,6.00
2023-03-06T20:20:58.971Z,6.00
2023-03-06T20:26:06.378Z,6.00
2023-03-06T20:31:08.606Z,6.00
2023-03-06T20:36:21.368Z,6.00
2023-03-06T20:41:26.626Z,6.00
2023-03-06T20:46:29.553Z,6.00
2023-03-06T20:51:36.046Z,6.00
2023-03-06T20:56:39.701Z,6.00
2023-03-06T21:01:44.112Z,5.90
2023-03-06T21:06:47.581Z,5.90
2023-03-06T21:11:49.661Z,5.80
2023-03-06T21:16:51.729Z,5.80
2023-03-06T21:21:53.849Z,5.80
2023-03-06T21:26:55.906Z,5.80
2023-03-06T21:31:58.041Z,5.80
2023-03-06T21:37:00.115Z,5.70
2023-03-06T21:42:02.330Z,5.70
2023-03-06T21:47:05.437Z,5.60
2023-03-06T21:52:07.566Z,5.60
2023-03-06T21:57:09.629Z,5.60
2023-03-06T22:02:11.896Z,5.60
2023-03-06T22:07:14.285Z,5.60
2023-03-06T22:12:16.479Z,5.60
2023-03-06T22:17:18.581Z,5.60
2023-03-06T22:22:20.624Z,5.50
2023-03-06T22:27:22.750Z,5.50
2023-03-06T22:32:24.897Z,5.50
2023-03-06T22:37:27.004Z,5.50
2023-03-06T22:42:29.069Z,5.60
2023-03-06T22:47:31.120Z,5.60
2023-03-06T22:52:33.994Z,5.60
2023-03-06T22:57:36.063Z,5.60
2023-03-06T23:02:38.686Z,5.60
2023-03-06T23:07:40.811Z,5.60
2023-03-06T23:12:44.129Z,5.60
2023-03-06T23:18:05.216Z,5.50
2023-03-06T23:23:26.689Z,5.50
2023-03-06T23:28:29.069Z,5.40
2023-03-06T23:33:31.410Z,5.40
2023-03-06T23:38:33.943Z,5.40
2023-03-06T23:43:36.507Z,5.40
2023-03-06T23:48:40.581Z,5.40
2023-03-06T23:53:43.929Z,5.40
2023-03-06T23:58:46.151Z,5.40
